sensor_id;sensor_type;location;lat;lon;timestamp;temperature;humidity
13697;DHT22;6920;50.080;8.226;2023-07-22T00:06:53;15.90;99.90
13697;DHT22;6920;50.080;8.226;2023-07-22T00:09:20;15.90;99.90
13697;DHT22;6920;50.080;8.226;2023-07-22T00:29:05;15.80;99.90
13697;DHT22;6920;50.080;8.226;2023-07-22T00:31:33;15.80;99.90
13697;DHT22;6920;50.080;8.226;2023-07-22T00:41:24;15.40;99.90
13697;DHT22;6920;50.080;8.226;2023-07-22T00:43:52;15.40;99.90
13697;DHT22;6920;50.080;8.226;2023-07-22T00:56:39;15.30;99.90
13697;DHT22;6920;50.080;8.226;2023-07-22T01:06:30;15.30;99.90
13697;DHT22;6920;50.080;8.226;2023-07-22T01:08:57;15.30;99.90
13697;DHT22;6920;50.080;8.226;2023-07-22T01:13:53;15.10;99.90
13697;DHT22;6920;50.080;8.226;2023-07-22T01:16:24;15.20;99.90
13697;DHT22;6920;50.080;8.226;2023-07-22T01:23:50;15.10;99.90
13697;DHT22;6920;50.080;8.226;2023-07-22T01:26:18;15.10;99.90
13697;DHT22;6920;50.080;8.226;2023-07-22T01:41:03;14.90;99.90
13697;DHT22;6920;50.080;8.226;2023-07-22T01:45:58;14.80;99.90
13697;DHT22;6920;50.080;8.226;2023-07-22T01:53:20;14.80;99.90
13697;DHT22;6920;50.080;8.226;2023-07-22T02:00:43;14.60;99.90
13697;DHT22;6920;50.080;8.226;2023-07-22T02:03:10;14.50;99.90
13697;DHT22;6920;50.080;8.226;2023-07-22T02:05:37;14.60;99.90
13697;DHT22;6920;50.080;8.226;2023-07-22T02:10:31;14.60;99.90
13697;DHT22;6920;50.080;8.226;2023-07-22T02:12:58;14.80;99.90
13697;DHT22;6920;50.080;8.226;2023-07-22T02:32:41;14.50;99.90
13697;DHT22;6920;50.080;8.226;2023-07-22T02:37:37;14.40;99.90
13697;DHT22;6920;50.080;8.226;2023-07-22T02:47:29;14.40;99.90
13697;DHT22;6920;50.080;8.226;2023-07-22T02:52:25;14.40;99.90
13697;DHT22;6920;50.080;8.226;2023-07-22T03:00:01;14.10;99.90
13697;DHT22;6920;50.080;8.226;2023-07-22T03:17:21;14.10;99.90
13697;DHT22;6920;50.080;8.226;2023-07-22T03:19:48;13.90;99.90
13697;DHT22;6920;50.080;8.226;2023-07-22T03:32:07;13.90;99.90
13697;DHT22;6920;50.080;8.226;2023-07-22T03:34:35;14.00;99.90
13697;DHT22;6920;50.080;8.226;2023-07-22T03:46:54;13.90;99.90
13697;DHT22;6920;50.080;8.226;2023-07-22T03:51:50;13.90;99.90
13697;DHT22;6920;50.080;8.226;2023-07-22T03:54:17;13.90;99.90
13697;DHT22;6920;50.080;8.226;2023-07-22T03:59:13;13.80;99.90
13697;DHT22;6920;50.080;8.226;2023-07-22T04:01:40;13.70;99.90
13697;DHT22;6920;50.080;8.226;2023-07-22T04:16:26;13.80;99.90
13697;DHT22;6920;50.080;8.226;2023-07-22T04:18:53;13.80;99.90
13697;DHT22;6920;50.080;8.226;2023-07-22T04:31:11;13.60;99.90
13697;DHT22;6920;50.080;8.226;2023-07-22T04:38:34;13.80;99.90
13697;DHT22;6920;50.080;8.226;2023-07-22T04:50:54;13.80;99.90
13697;DHT22;6920;50.080;8.226;2023-07-22T04:58:16;14.10;99.90
13697;DHT22;6920;50.080;8.226;2023-07-22T05:15:28;14.40;99.90
13697;DHT22;6920;50.080;8.226;2023-07-22T05:17:55;14.50;99.90
13697;DHT22;6920;50.080;8.226;2023-07-22T05:37:35;15.10;99.90
13697;DHT22;6920;50.080;8.226;2023-07-22T05:40:05;15.10;99.90
13697;DHT22;6920;50.080;8.226;2023-07-22T05:49:55;15.50;99.90
13697;DHT22;6920;50.080;8.226;2023-07-22T06:03:08;16.30;99.90
13697;DHT22;6920;50.080;8.226;2023-07-22T06:13:00;17.00;99.90
13697;DHT22;6920;50.080;8.226;2023-07-22T06:15:27;17.30;99.90
13697;DHT22;6920;50.080;8.226;2023-07-22T06:20:22;17.70;99.90
13697;DHT22;6920;50.080;8.226;2023-07-22T06:22:50;17.90;99.90
13697;DHT22;6920;50.080;8.226;2023-07-22T06:25:17;18.00;99.90
13697;DHT22;6920;50.080;8.226;2023-07-22T06:32:41;18.40;99.90
13697;DHT22;6920;50.080;8.226;2023-07-22T06:35:08;18.40;99.90
13697;DHT22;6920;50.080;8.226;2023-07-22T06:37:36;18.30;99.90
13697;DHT22;6920;50.080;8.226;2023-07-22T06:42:31;18.30;99.90
13697;DHT22;6920;50.080;8.226;2023-07-22T06:44:58;18.30;99.90
13697;DHT22;6920;50.080;8.226;2023-07-22T06:49:55;18.20;99.90
13697;DHT22;6920;50.080;8.226;2023-07-22T06:54:49;19.60;99.90
13697;DHT22;6920;50.080;8.226;2023-07-22T06:57:17;19.80;99.90
13697;DHT22;6920;50.080;8.226;2023-07-22T06:59:44;20.00;99.90
13697;DHT22;6920;50.080;8.226;2023-07-22T07:04:40;20.60;99.90
13697;DHT22;6920;50.080;8.226;2023-07-22T07:07:07;20.80;99.90
13697;DHT22;6920;50.080;8.226;2023-07-22T07:09:35;20.70;99.90
13697;DHT22;6920;50.080;8.226;2023-07-22T07:12:03;20.40;99.90
13697;DHT22;6920;50.080;8.226;2023-07-22T07:16:57;20.40;99.90
13697;DHT22;6920;50.080;8.226;2023-07-22T07:19:25;20.90;99.90
13697;DHT22;6920;50.080;8.226;2023-07-22T07:21:54;21.20;99.90
13697;DHT22;6920;50.080;8.226;2023-07-22T07:24:21;21.20;99.90
13697;DHT22;6920;50.080;8.226;2023-07-22T07:26:48;21.10;99.90
13697;DHT22;6920;50.080;8.226;2023-07-22T07:29:16;20.80;99.90
13697;DHT22;6920;50.080;8.226;2023-07-22T07:31:42;21.00;99.90
13697;DHT22;6920;50.080;8.226;2023-07-22T07:34:09;21.40;99.90
13697;DHT22;6920;50.080;8.226;2023-07-22T07:36:37;21.70;99.90
13697;DHT22;6920;50.080;8.226;2023-07-22T07:41:33;22.30;99.90
13697;DHT22;6920;50.080;8.226;2023-07-22T07:44:00;22.50;99.90
13697;DHT22;6920;50.080;8.226;2023-07-22T07:46:28;22.80;99.90
13697;DHT22;6920;50.080;8.226;2023-07-22T07:48:57;22.80;99.90
13697;DHT22;6920;50.080;8.226;2023-07-22T07:51:25;23.00;99.90
13697;DHT22;6920;50.080;8.226;2023-07-22T07:53:53;23.00;99.90
13697;DHT22;6920;50.080;8.226;2023-07-22T07:56:22;22.70;99.90
13697;DHT22;6920;50.080;8.226;2023-07-22T07:58:52;22.80;99.90
13697;DHT22;6920;50.080;8.226;2023-07-22T08:01:19;22.80;99.90
13697;DHT22;6920;50.080;8.226;2023-07-22T08:03:47;22.80;99.90
13697;DHT22;6920;50.080;8.226;2023-07-22T08:08:41;22.60;99.90
13697;DHT22;6920;50.080;8.226;2023-07-22T08:11:10;22.60;99.90
13697;DHT22;6920;50.080;8.226;2023-07-22T08:13:41;22.50;99.90
13697;DHT22;6920;50.080;8.226;2023-07-22T08:16:09;22.30;99.90
13697;DHT22;6920;50.080;8.226;2023-07-22T08:18:38;22.20;99.90
13697;DHT22;6920;50.080;8.226;2023-07-22T08:21:06;22.60;99.90
13697;DHT22;6920;50.080;8.226;2023-07-22T08:23:34;22.90;99.90
13697;DHT22;6920;50.080;8.226;2023-07-22T08:26:02;23.10;99.90
13697;DHT22;6920;50.080;8.226;2023-07-22T08:28:31;23.20;99.90
13697;DHT22;6920;50.080;8.226;2023-07-22T08:31:00;23.20;99.90
13697;DHT22;6920;50.080;8.226;2023-07-22T08:33:28;23.20;99.90
13697;DHT22;6920;50.080;8.226;2023-07-22T08:35:55;23.00;99.90
13697;DHT22;6920;50.080;8.226;2023-07-22T08:38:22;23.10;99.90
13697;DHT22;6920;50.080;8.226;2023-07-22T08:40:51;23.20;99.90
13697;DHT22;6920;50.080;8.226;2023-07-22T08:43:20;23.50;99.90
13697;DHT22;6920;50.080;8.226;2023-07-22T08:45:48;24.00;99.90
13697;DHT22;6920;50.080;8.226;2023-07-22T08:48:17;24.80;99.90
13697;DHT22;6920;50.080;8.226;2023-07-22T08:50:48;24.30;99.90
13697;DHT22;6920;50.080;8.226;2023-07-22T08:53:16;24.40;99.90
13697;DHT22;6920;50.080;8.226;2023-07-22T08:55:45;24.50;99.90
13697;DHT22;6920;50.080;8.226;2023-07-22T08:58:14;24.30;99.90
13697;DHT22;6920;50.080;8.226;2023-07-22T09:00:43;24.50;99.90
13697;DHT22;6920;50.080;8.226;2023-07-22T09:03:36;24.30;99.90
13697;DHT22;6920;50.080;8.226;2023-07-22T09:06:05;23.90;99.90
13697;DHT22;6920;50.080;8.226;2023-07-22T09:08:33;23.30;99.90
13697;DHT22;6920;50.080;8.226;2023-07-22T09:11:01;23.00;99.90
13697;DHT22;6920;50.080;8.226;2023-07-22T09:13:29;22.90;99.90
13697;DHT22;6920;50.080;8.226;2023-07-22T09:15:57;23.00;99.90
13697;DHT22;6920;50.080;8.226;2023-07-22T09:18:25;22.90;99.90
13697;DHT22;6920;50.080;8.226;2023-07-22T09:20:54;22.90;99.90
13697;DHT22;6920;50.080;8.226;2023-07-22T09:23:32;22.90;99.90
13697;DHT22;6920;50.080;8.226;2023-07-22T09:26:08;23.20;99.90
13697;DHT22;6920;50.080;8.226;2023-07-22T09:28:48;24.10;99.90
13697;DHT22;6920;50.080;8.226;2023-07-22T09:31:15;24.80;99.90
13697;DHT22;6920;50.080;8.226;2023-07-22T09:33:43;25.00;99.90
13697;DHT22;6920;50.080;8.226;2023-07-22T09:36:12;25.00;99.90
13697;DHT22;6920;50.080;8.226;2023-07-22T09:41:07;24.90;99.90
13697;DHT22;6920;50.080;8.226;2023-07-22T09:43:39;25.40;99.90
13697;DHT22;6920;50.080;8.226;2023-07-22T09:46:07;25.60;99.80
13697;DHT22;6920;50.080;8.226;2023-07-22T09:48:42;25.80;99.70
13697;DHT22;6920;50.080;8.226;2023-07-22T09:51:16;26.00;98.80
13697;DHT22;6920;50.080;8.226;2023-07-22T09:53:47;26.00;98.70
13697;DHT22;6920;50.080;8.226;2023-07-22T09:56:15;26.20;98.70
13697;DHT22;6920;50.080;8.226;2023-07-22T09:58:46;26.00;98.60
13697;DHT22;6920;50.080;8.226;2023-07-22T10:01:15;25.70;98.50
13697;DHT22;6920;50.080;8.226;2023-07-22T10:08:44;26.30;97.40
13697;DHT22;6920;50.080;8.226;2023-07-22T10:11:14;26.30;97.20
13697;DHT22;6920;50.080;8.226;2023-07-22T10:13:42;26.40;97.00
13697;DHT22;6920;50.080;8.226;2023-07-22T10:16:10;25.90;97.20
13697;DHT22;6920;50.080;8.226;2023-07-22T10:18:39;25.20;96.90
13697;DHT22;6920;50.080;8.226;2023-07-22T10:21:09;25.00;97.50
13697;DHT22;6920;50.080;8.226;2023-07-22T10:23:37;24.50;98.50
13697;DHT22;6920;50.080;8.226;2023-07-22T10:28:37;25.10;97.90
13697;DHT22;6920;50.080;8.226;2023-07-22T10:31:06;25.40;98.20
13697;DHT22;6920;50.080;8.226;2023-07-22T10:36:05;24.60;98.40
13697;DHT22;6920;50.080;8.226;2023-07-22T10:38:34;24.20;98.80
13697;DHT22;6920;50.080;8.226;2023-07-22T10:41:13;24.30;99.10
13697;DHT22;6920;50.080;8.226;2023-07-22T10:43:52;23.90;99.30
13697;DHT22;6920;50.080;8.226;2023-07-22T10:46:31;23.80;99.40
13697;DHT22;6920;50.080;8.226;2023-07-22T10:49:09;23.70;99.70
13697;DHT22;6920;50.080;8.226;2023-07-22T10:51:37;23.60;99.80
13697;DHT22;6920;50.080;8.226;2023-07-22T10:54:11;23.30;99.50
13697;DHT22;6920;50.080;8.226;2023-07-22T10:56:43;23.10;99.70
13697;DHT22;6920;50.080;8.226;2023-07-22T10:59:11;23.20;99.80
13697;DHT22;6920;50.080;8.226;2023-07-22T11:01:40;23.20;99.70
13697;DHT22;6920;50.080;8.226;2023-07-22T11:04:24;23.30;99.80
13697;DHT22;6920;50.080;8.226;2023-07-22T11:06:58;23.30;99.70
13697;DHT22;6920;50.080;8.226;2023-07-22T11:09:39;23.40;99.50
13697;DHT22;6920;50.080;8.226;2023-07-22T11:12:12;23.40;99.80
13697;DHT22;6920;50.080;8.226;2023-07-22T11:14:47;23.50;99.60
13697;DHT22;6920;50.080;8.226;2023-07-22T11:19:43;23.60;99.40
13697;DHT22;6920;50.080;8.226;2023-07-22T11:22:11;23.90;99.30
13697;DHT22;6920;50.080;8.226;2023-07-22T11:24:39;24.20;99.00
13697;DHT22;6920;50.080;8.226;2023-07-22T11:27:07;24.50;99.50
13697;DHT22;6920;50.080;8.226;2023-07-22T11:29:36;25.00;98.80
13697;DHT22;6920;50.080;8.226;2023-07-22T11:32:05;25.30;97.40
13697;DHT22;6920;50.080;8.226;2023-07-22T11:37:01;25.00;97.50
13697;DHT22;6920;50.080;8.226;2023-07-22T11:39:28;25.20;97.00
13697;DHT22;6920;50.080;8.226;2023-07-22T11:42:00;25.10;96.90
13697;DHT22;6920;50.080;8.226;2023-07-22T11:47:29;25.00;97.00
13697;DHT22;6920;50.080;8.226;2023-07-22T11:49:57;25.50;96.80
13697;DHT22;6920;50.080;8.226;2023-07-22T11:52:25;26.00;95.80
13697;DHT22;6920;50.080;8.226;2023-07-22T11:54:52;26.10;95.90
13697;DHT22;6920;50.080;8.226;2023-07-22T11:57:22;26.00;95.50
13697;DHT22;6920;50.080;8.226;2023-07-22T11:59:51;26.10;95.40
13697;DHT22;6920;50.080;8.226;2023-07-22T12:02:21;26.20;95.00
13697;DHT22;6920;50.080;8.226;2023-07-22T12:04:53;26.40;94.30
13697;DHT22;6920;50.080;8.226;2023-07-22T12:07:25;26.60;94.40
13697;DHT22;6920;50.080;8.226;2023-07-22T12:09:54;26.40;93.90
13697;DHT22;6920;50.080;8.226;2023-07-22T12:12:21;26.30;93.90
13697;DHT22;6920;50.080;8.226;2023-07-22T12:15:08;26.30;93.30
13697;DHT22;6920;50.080;8.226;2023-07-22T12:29:34;26.00;92.90
13697;DHT22;6920;50.080;8.226;2023-07-22T12:32:01;25.80;92.50
13697;DHT22;6920;50.080;8.226;2023-07-22T12:34:30;26.00;92.40
13697;DHT22;6920;50.080;8.226;2023-07-22T12:36:58;26.10;92.20
13697;DHT22;6920;50.080;8.226;2023-07-22T12:39:25;26.20;91.90
13697;DHT22;6920;50.080;8.226;2023-07-22T12:44:22;25.80;92.40
13697;DHT22;6920;50.080;8.226;2023-07-22T12:46:51;25.60;92.20
13697;DHT22;6920;50.080;8.226;2023-07-22T12:54:14;25.70;91.20
13697;DHT22;6920;50.080;8.226;2023-07-22T12:56:41;25.90;91.30
13697;DHT22;6920;50.080;8.226;2023-07-22T13:01:36;25.90;90.20
13697;DHT22;6920;50.080;8.226;2023-07-22T13:04:08;25.90;89.40
13697;DHT22;6920;50.080;8.226;2023-07-22T13:06:35;25.80;89.90
13697;DHT22;6920;50.080;8.226;2023-07-22T13:09:03;25.90;90.00
13697;DHT22;6920;50.080;8.226;2023-07-22T13:11:31;26.00;89.60
13697;DHT22;6920;50.080;8.226;2023-07-22T13:13:58;26.30;90.00
13697;DHT22;6920;50.080;8.226;2023-07-22T13:16:25;26.40;89.10
13697;DHT22;6920;50.080;8.226;2023-07-22T13:18:53;26.30;88.80
13697;DHT22;6920;50.080;8.226;2023-07-22T13:21:21;26.00;88.80
13697;DHT22;6920;50.080;8.226;2023-07-22T13:26:16;25.50;89.50
13697;DHT22;6920;50.080;8.226;2023-07-22T13:28:43;25.90;89.40
13697;DHT22;6920;50.080;8.226;2023-07-22T13:33:38;26.30;88.20
13697;DHT22;6920;50.080;8.226;2023-07-22T13:36:06;26.60;88.30
13697;DHT22;6920;50.080;8.226;2023-07-22T13:38:36;26.70;87.00
13697;DHT22;6920;50.080;8.226;2023-07-22T13:41:03;26.50;87.60
13697;DHT22;6920;50.080;8.226;2023-07-22T13:45:58;26.50;87.20
13697;DHT22;6920;50.080;8.226;2023-07-22T13:48:25;26.30;87.00
13697;DHT22;6920;50.080;8.226;2023-07-22T13:53:21;26.30;85.80
13697;DHT22;6920;50.080;8.226;2023-07-22T13:55:50;26.10;86.10
13697;DHT22;6920;50.080;8.226;2023-07-22T13:58:17;26.20;86.50
13697;DHT22;6920;50.080;8.226;2023-07-22T14:00:44;26.20;86.80
13697;DHT22;6920;50.080;8.226;2023-07-22T14:03:12;26.10;86.80
13697;DHT22;6920;50.080;8.226;2023-07-22T14:08:07;26.50;86.80
13697;DHT22;6920;50.080;8.226;2023-07-22T14:10:35;26.70;85.20
13697;DHT22;6920;50.080;8.226;2023-07-22T14:13:03;26.90;84.70
13697;DHT22;6920;50.080;8.226;2023-07-22T14:15:31;27.20;83.90
13697;DHT22;6920;50.080;8.226;2023-07-22T14:17:58;27.40;83.40
13697;DHT22;6920;50.080;8.226;2023-07-22T14:20:25;27.20;82.90
13697;DHT22;6920;50.080;8.226;2023-07-22T14:23:15;27.30;82.60
13697;DHT22;6920;50.080;8.226;2023-07-22T14:25:43;27.20;82.40
13697;DHT22;6920;50.080;8.226;2023-07-22T14:28:12;27.10;82.60
13697;DHT22;6920;50.080;8.226;2023-07-22T14:30:39;26.70;82.40
13697;DHT22;6920;50.080;8.226;2023-07-22T14:33:07;27.10;82.80
13697;DHT22;6920;50.080;8.226;2023-07-22T14:35:34;27.40;81.40
13697;DHT22;6920;50.080;8.226;2023-07-22T14:40:30;27.60;81.00
13697;DHT22;6920;50.080;8.226;2023-07-22T14:42:57;27.40;80.30
13697;DHT22;6920;50.080;8.226;2023-07-22T14:45:26;26.70;80.10
13697;DHT22;6920;50.080;8.226;2023-07-22T14:47:54;26.80;81.40
13697;DHT22;6920;50.080;8.226;2023-07-22T14:50:21;26.80;80.40
13697;DHT22;6920;50.080;8.226;2023-07-22T14:52:49;26.60;80.40
13697;DHT22;6920;50.080;8.226;2023-07-22T14:55:17;26.50;81.00
13697;DHT22;6920;50.080;8.226;2023-07-22T14:57:45;26.60;80.90
13697;DHT22;6920;50.080;8.226;2023-07-22T15:02:41;27.10;80.10
13697;DHT22;6920;50.080;8.226;2023-07-22T15:05:09;27.20;79.40
13697;DHT22;6920;50.080;8.226;2023-07-22T15:10:06;26.70;79.20
13697;DHT22;6920;50.080;8.226;2023-07-22T15:12:33;26.60;79.70
13697;DHT22;6920;50.080;8.226;2023-07-22T15:17:29;26.50;79.20
13697;DHT22;6920;50.080;8.226;2023-07-22T15:19:59;26.70;79.40
13697;DHT22;6920;50.080;8.226;2023-07-22T15:22:32;26.90;79.10
13697;DHT22;6920;50.080;8.226;2023-07-22T15:27:27;26.70;78.50
13697;DHT22;6920;50.080;8.226;2023-07-22T15:32:22;27.10;78.50
13697;DHT22;6920;50.080;8.226;2023-07-22T15:34:50;27.40;78.30
13697;DHT22;6920;50.080;8.226;2023-07-22T15:37:18;27.40;78.00
13697;DHT22;6920;50.080;8.226;2023-07-22T15:42:13;27.30;77.70
13697;DHT22;6920;50.080;8.226;2023-07-22T15:44:41;27.30;78.10
13697;DHT22;6920;50.080;8.226;2023-07-22T15:47:08;27.10;77.60
13697;DHT22;6920;50.080;8.226;2023-07-22T15:49:36;26.90;78.10
13697;DHT22;6920;50.080;8.226;2023-07-22T15:52:03;26.70;78.00
13697;DHT22;6920;50.080;8.226;2023-07-22T15:54:32;26.60;78.40
13697;DHT22;6920;50.080;8.226;2023-07-22T15:57:00;26.60;78.60
13697;DHT22;6920;50.080;8.226;2023-07-22T16:01:55;26.80;78.10
13697;DHT22;6920;50.080;8.226;2023-07-22T16:06:49;26.40;79.10
13697;DHT22;6920;50.080;8.226;2023-07-22T16:09:17;26.30;79.90
13697;DHT22;6920;50.080;8.226;2023-07-22T16:11:46;26.10;80.00
13697;DHT22;6920;50.080;8.226;2023-07-22T16:16:41;26.00;80.10
13697;DHT22;6920;50.080;8.226;2023-07-22T16:24:04;26.10;79.70
13697;DHT22;6920;50.080;8.226;2023-07-22T16:29:01;25.80;80.10
13697;DHT22;6920;50.080;8.226;2023-07-22T16:31:28;25.90;79.90
13697;DHT22;6920;50.080;8.226;2023-07-22T16:33:56;25.80;79.70
13697;DHT22;6920;50.080;8.226;2023-07-22T16:36:25;25.70;79.70
13697;DHT22;6920;50.080;8.226;2023-07-22T16:38:53;25.70;79.80
13697;DHT22;6920;50.080;8.226;2023-07-22T16:41:20;25.50;79.50
13697;DHT22;6920;50.080;8.226;2023-07-22T16:43:48;25.30;80.10
13697;DHT22;6920;50.080;8.226;2023-07-22T16:46:17;25.30;80.40
13697;DHT22;6920;50.080;8.226;2023-07-22T16:48:44;25.30;80.80
13697;DHT22;6920;50.080;8.226;2023-07-22T16:51:12;25.30;80.80
13697;DHT22;6920;50.080;8.226;2023-07-22T16:53:41;25.40;80.70
13697;DHT22;6920;50.080;8.226;2023-07-22T16:56:09;25.30;80.30
13697;DHT22;6920;50.080;8.226;2023-07-22T16:58:37;25.30;80.60
13697;DHT22;6920;50.080;8.226;2023-07-22T17:01:06;25.20;80.50
13697;DHT22;6920;50.080;8.226;2023-07-22T17:03:36;25.10;80.80
13697;DHT22;6920;50.080;8.226;2023-07-22T17:06:04;25.10;80.40
13697;DHT22;6920;50.080;8.226;2023-07-22T17:08:32;25.10;80.90
13697;DHT22;6920;50.080;8.226;2023-07-22T17:13:27;24.90;81.40
13697;DHT22;6920;50.080;8.226;2023-07-22T17:15:54;24.90;81.30
13697;DHT22;6920;50.080;8.226;2023-07-22T17:20:52;24.90;81.00
13697;DHT22;6920;50.080;8.226;2023-07-22T17:26:42;24.90;81.60
13697;DHT22;6920;50.080;8.226;2023-07-22T17:29:16;24.90;81.50
13697;DHT22;6920;50.080;8.226;2023-07-22T17:31:44;24.80;81.50
13697;DHT22;6920;50.080;8.226;2023-07-22T17:34:11;24.80;83.30
13697;DHT22;6920;50.080;8.226;2023-07-22T17:36:41;24.70;83.00
13697;DHT22;6920;50.080;8.226;2023-07-22T17:39:08;24.60;82.10
13697;DHT22;6920;50.080;8.226;2023-07-22T17:41:36;24.40;83.70
13697;DHT22;6920;50.080;8.226;2023-07-22T17:44:05;24.40;84.20
13697;DHT22;6920;50.080;8.226;2023-07-22T17:46:31;24.30;84.10
13697;DHT22;6920;50.080;8.226;2023-07-22T17:48:59;24.30;84.10
13697;DHT22;6920;50.080;8.226;2023-07-22T17:51:26;24.20;83.60
13697;DHT22;6920;50.080;8.226;2023-07-22T17:53:55;24.20;84.20
13697;DHT22;6920;50.080;8.226;2023-07-22T17:56:23;24.10;85.20
13697;DHT22;6920;50.080;8.226;2023-07-22T17:58:50;24.10;84.90
13697;DHT22;6920;50.080;8.226;2023-07-22T18:01:18;24.00;85.20
13697;DHT22;6920;50.080;8.226;2023-07-22T18:03:45;24.00;84.80
13697;DHT22;6920;50.080;8.226;2023-07-22T18:06:15;24.00;85.00
13697;DHT22;6920;50.080;8.226;2023-07-22T18:08:42;23.90;85.40
13697;DHT22;6920;50.080;8.226;2023-07-22T18:11:11;23.90;85.90
13697;DHT22;6920;50.080;8.226;2023-07-22T18:13:38;23.90;86.10
13697;DHT22;6920;50.080;8.226;2023-07-22T18:16:05;23.80;86.00
13697;DHT22;6920;50.080;8.226;2023-07-22T18:18:33;23.80;86.20
13697;DHT22;6920;50.080;8.226;2023-07-22T18:21:00;23.80;86.30
13697;DHT22;6920;50.080;8.226;2023-07-22T18:23:28;23.80;85.90
13697;DHT22;6920;50.080;8.226;2023-07-22T18:26:12;23.80;85.80
13697;DHT22;6920;50.080;8.226;2023-07-22T18:28:42;23.80;86.30
13697;DHT22;6920;50.080;8.226;2023-07-22T18:31:09;23.80;86.40
13697;DHT22;6920;50.080;8.226;2023-07-22T18:36:04;23.80;86.20
13697;DHT22;6920;50.080;8.226;2023-07-22T18:38:32;23.70;86.30
13697;DHT22;6920;50.080;8.226;2023-07-22T18:41:00;23.60;86.50
13697;DHT22;6920;50.080;8.226;2023-07-22T18:43:28;23.50;87.00
13697;DHT22;6920;50.080;8.226;2023-07-22T18:45:56;23.50;86.80
13697;DHT22;6920;50.080;8.226;2023-07-22T18:48:23;23.40;87.30
13697;DHT22;6920;50.080;8.226;2023-07-22T18:50:54;23.40;87.40
13697;DHT22;6920;50.080;8.226;2023-07-22T18:55:49;23.40;87.80
13697;DHT22;6920;50.080;8.226;2023-07-22T19:00:46;23.30;87.50
13697;DHT22;6920;50.080;8.226;2023-07-22T19:03:13;23.20;87.20
13697;DHT22;6920;50.080;8.226;2023-07-22T19:05:40;23.20;87.80
13697;DHT22;6920;50.080;8.226;2023-07-22T19:10:35;23.10;88.20
13697;DHT22;6920;50.080;8.226;2023-07-22T19:13:02;23.10;88.70
13697;DHT22;6920;50.080;8.226;2023-07-22T19:15:29;23.00;89.80
13697;DHT22;6920;50.080;8.226;2023-07-22T19:18:02;22.90;90.20
13697;DHT22;6920;50.080;8.226;2023-07-22T19:20:29;22.90;90.40
13697;DHT22;6920;50.080;8.226;2023-07-22T19:22:58;22.80;90.70
13697;DHT22;6920;50.080;8.226;2023-07-22T19:25:25;22.70;91.20
13697;DHT22;6920;50.080;8.226;2023-07-22T19:27:55;22.70;91.20
13697;DHT22;6920;50.080;8.226;2023-07-22T19:30:22;22.60;91.60
13697;DHT22;6920;50.080;8.226;2023-07-22T19:32:51;22.50;92.00
13697;DHT22;6920;50.080;8.226;2023-07-22T19:35:20;22.40;92.10
13697;DHT22;6920;50.080;8.226;2023-07-22T19:37:47;22.30;92.30
13697;DHT22;6920;50.080;8.226;2023-07-22T19:40:15;22.30;92.80
13697;DHT22;6920;50.080;8.226;2023-07-22T19:42:42;22.20;93.20
13697;DHT22;6920;50.080;8.226;2023-07-22T19:45:10;22.20;93.70
13697;DHT22;6920;50.080;8.226;2023-07-22T19:47:38;22.20;93.50
13697;DHT22;6920;50.080;8.226;2023-07-22T19:50:06;22.20;93.60
13697;DHT22;6920;50.080;8.226;2023-07-22T19:52:35;22.20;93.70
13697;DHT22;6920;50.080;8.226;2023-07-22T19:55:07;22.10;93.80
13697;DHT22;6920;50.080;8.226;2023-07-22T19:57:35;22.00;94.10
13697;DHT22;6920;50.080;8.226;2023-07-22T20:00:03;21.90;94.50
13697;DHT22;6920;50.080;8.226;2023-07-22T20:02:30;21.90;94.80
13697;DHT22;6920;50.080;8.226;2023-07-22T20:07:25;21.60;95.30
13697;DHT22;6920;50.080;8.226;2023-07-22T20:09:54;21.60;95.40
13697;DHT22;6920;50.080;8.226;2023-07-22T20:14:49;21.60;95.60
13697;DHT22;6920;50.080;8.226;2023-07-22T20:17:17;21.60;95.50
13697;DHT22;6920;50.080;8.226;2023-07-22T20:19:44;21.60;95.70
13697;DHT22;6920;50.080;8.226;2023-07-22T20:22:15;21.50;95.90
13697;DHT22;6920;50.080;8.226;2023-07-22T20:24:43;21.50;96.50
13697;DHT22;6920;50.080;8.226;2023-07-22T20:38:16;21.10;97.40
13697;DHT22;6920;50.080;8.226;2023-07-22T20:40:43;21.10;97.60
13697;DHT22;6920;50.080;8.226;2023-07-22T20:46:33;21.10;98.00
13697;DHT22;6920;50.080;8.226;2023-07-22T20:49:00;21.10;98.00
13697;DHT22;6920;50.080;8.226;2023-07-22T20:53:55;21.00;98.20
13697;DHT22;6920;50.080;8.226;2023-07-22T20:58:51;20.80;98.80
13697;DHT22;6920;50.080;8.226;2023-07-22T21:01:18;20.80;98.80
13697;DHT22;6920;50.080;8.226;2023-07-22T21:03:45;20.80;99.00
13697;DHT22;6920;50.080;8.226;2023-07-22T21:06:12;21.00;99.20
13697;DHT22;6920;50.080;8.226;2023-07-22T21:11:07;20.90;99.60
13697;DHT22;6920;50.080;8.226;2023-07-22T21:13:36;20.70;99.90
13697;DHT22;6920;50.080;8.226;2023-07-22T21:16:04;20.70;99.90
13697;DHT22;6920;50.080;8.226;2023-07-22T21:18:31;20.60;99.90
13697;DHT22;6920;50.080;8.226;2023-07-22T21:21:03;20.60;99.90
13697;DHT22;6920;50.080;8.226;2023-07-22T21:23:31;20.50;99.90
13697;DHT22;6920;50.080;8.226;2023-07-22T21:25:58;20.60;99.90
13697;DHT22;6920;50.080;8.226;2023-07-22T21:28:26;20.50;99.90
13697;DHT22;6920;50.080;8.226;2023-07-22T21:30:54;20.50;99.90
13697;DHT22;6920;50.080;8.226;2023-07-22T21:38:15;20.20;99.90
13697;DHT22;6920;50.080;8.226;2023-07-22T21:40:48;20.20;99.90
13697;DHT22;6920;50.080;8.226;2023-07-22T21:43:15;20.10;99.90
13697;DHT22;6920;50.080;8.226;2023-07-22T21:45:43;20.20;99.90
13697;DHT22;6920;50.080;8.226;2023-07-22T21:48:11;20.20;99.90
13697;DHT22;6920;50.080;8.226;2023-07-22T21:50:39;20.10;99.90
13697;DHT22;6920;50.080;8.226;2023-07-22T21:53:06;20.20;99.90
13697;DHT22;6920;50.080;8.226;2023-07-22T21:55:34;20.20;99.90
13697;DHT22;6920;50.080;8.226;2023-07-22T21:58:01;20.00;99.90
13697;DHT22;6920;50.080;8.226;2023-07-22T22:00:29;19.80;99.90
13697;DHT22;6920;50.080;8.226;2023-07-22T22:02:57;19.90;99.90
13697;DHT22;6920;50.080;8.226;2023-07-22T22:05:24;19.90;99.90
13697;DHT22;6920;50.080;8.226;2023-07-22T22:07:52;19.90;99.90
13697;DHT22;6920;50.080;8.226;2023-07-22T22:10:19;19.90;99.90
13697;DHT22;6920;50.080;8.226;2023-07-22T22:12:46;19.90;99.90
13697;DHT22;6920;50.080;8.226;2023-07-22T22:15:13;19.90;99.90
13697;DHT22;6920;50.080;8.226;2023-07-22T22:20:15;19.90;99.90
13697;DHT22;6920;50.080;8.226;2023-07-22T22:22:44;19.80;99.90
13697;DHT22;6920;50.080;8.226;2023-07-22T22:27:39;19.80;99.90
13697;DHT22;6920;50.080;8.226;2023-07-22T22:30:07;19.80;99.90
13697;DHT22;6920;50.080;8.226;2023-07-22T22:32:34;19.80;99.90
13697;DHT22;6920;50.080;8.226;2023-07-22T22:35:02;19.80;99.90
13697;DHT22;6920;50.080;8.226;2023-07-22T22:37:31;19.70;99.90
13697;DHT22;6920;50.080;8.226;2023-07-22T22:39:58;19.70;99.90
13697;DHT22;6920;50.080;8.226;2023-07-22T22:42:25;19.70;99.90
13697;DHT22;6920;50.080;8.226;2023-07-22T22:44:53;19.70;99.90
13697;DHT22;6920;50.080;8.226;2023-07-22T22:47:20;19.60;99.90
13697;DHT22;6920;50.080;8.226;2023-07-22T22:49:47;19.60;99.90
13697;DHT22;6920;50.080;8.226;2023-07-22T22:54:43;19.40;99.90
13697;DHT22;6920;50.080;8.226;2023-07-22T22:57:10;19.50;99.90